createdAt,value
2023-06-11T00:00:03.539Z,21.38
2023-06-11T00:02:08.904Z,21.41
2023-06-11T00:04:13.785Z,21.88
2023-06-11T00:06:18.712Z,21.59
2023-06-11T00:08:22.179Z,22.06
2023-06-11T00:10:26.570Z,21.19
2023-06-11T00:12:29.598Z,21.69
2023-06-11T00:14:32.502Z,22.12
2023-06-11T00:16:35.504Z,22.26
2023-06-11T00:18:41.760Z,20.65
2023-06-11T00:20:44.787Z,21.71
2023-06-11T00:22:47.624Z,21.95
2023-06-11T00:24:50.858Z,22.37
2023-06-11T00:26:55.097Z,22.12
2023-06-11T00:28:57.978Z,21.04
2023-06-11T00:31:02.363Z,21.17
2023-06-11T00:33:05.468Z,21.87
2023-06-11T00:35:10.825Z,22.23
2023-06-11T00:37:14.693Z,21.16
2023-06-11T00:39:17.899Z,21.50
2023-06-11T00:41:21.597Z,21.78
2023-06-11T00:43:27.524Z,22.00
2023-06-11T00:45:30.673Z,21.70
2023-06-11T00:47:33.954Z,21.21
2023-06-11T00:49:37.092Z,21.57
2023-06-11T00:51:42.495Z,21.80
2023-06-11T00:53:45.501Z,22.03
2023-06-11T00:55:48.889Z,21.97
2023-06-11T00:57:54.361Z,22.41
2023-06-11T00:59:58.814Z,22.38
2023-06-11T01:02:10.250Z,22.56
2023-06-11T01:04:40.783Z,22.52
2023-06-11T01:06:50.925Z,22.20
2023-06-11T01:08:58.654Z,22.59
2023-06-11T01:11:14.958Z,22.62
2023-06-11T01:13:21.246Z,22.28
2023-06-11T01:15:25.701Z,22.27
2023-06-11T01:17:41.931Z,22.25
2023-06-11T01:20:13.326Z,21.77
2023-06-11T01:22:20.870Z,21.89
2023-06-11T01:24:41.407Z,22.12
2023-06-11T01:26:52.066Z,21.97
2023-06-11T01:28:58.215Z,22.45
2023-06-11T01:31:07.620Z,22.48
2023-06-11T01:33:20.955Z,22.15
2023-06-11T01:35:30.955Z,22.25
2023-06-11T01:37:34.170Z,21.93
2023-06-11T01:39:38.550Z,22.11
2023-06-11T01:41:55.893Z,22.12
2023-06-11T01:44:00.981Z,22.11
2023-06-11T01:46:04.873Z,22.22
2023-06-11T01:48:08.492Z,22.42
2023-06-11T01:50:14.346Z,21.77
2023-06-11T01:52:17.961Z,22.11
2023-06-11T01:54:21.000Z,22.26
2023-06-11T01:56:24.344Z,22.44
2023-06-11T01:58:27.165Z,22.38
2023-06-11T02:00:31.947Z,22.39
2023-06-11T02:02:35.058Z,22.41
2023-06-11T02:04:38.481Z,21.16
2023-06-11T02:06:41.533Z,21.42
2023-06-11T02:08:44.809Z,22.09
2023-06-11T02:10:47.830Z,21.28
2023-06-11T02:12:53.249Z,20.86
2023-06-11T02:14:56.775Z,21.38
2023-06-11T02:17:01.036Z,20.74
2023-06-11T02:19:11.116Z,20.60
2023-06-11T02:21:14.040Z,21.00
2023-06-11T02:23:18.383Z,21.00
2023-06-11T02:25:22.072Z,21.25
2023-06-11T02:27:25.667Z,21.57
2023-06-11T02:29:28.976Z,21.56
2023-06-11T02:31:31.987Z,20.18
2023-06-11T02:33:36.337Z,20.95
2023-06-11T02:35:39.290Z,20.05
2023-06-11T02:37:51.447Z,20.90
2023-06-11T02:39:54.406Z,21.07
2023-06-11T02:41:57.477Z,21.11
2023-06-11T02:44:00.449Z,19.81
2023-06-11T02:46:03.573Z,20.60
2023-06-11T02:48:07.478Z,19.21
2023-06-11T02:50:12.063Z,20.24
2023-06-11T02:52:19.080Z,20.80
2023-06-11T02:54:22.711Z,19.75
2023-06-11T02:56:25.690Z,20.49
2023-06-11T02:58:28.517Z,20.74
2023-06-11T03:00:33.035Z,19.94
2023-06-11T03:02:36.049Z,20.36
2023-06-11T03:04:39.011Z,19.46
2023-06-11T03:06:43.416Z,19.90
2023-06-11T03:08:46.426Z,20.41
2023-06-11T03:10:49.293Z,20.67
2023-06-11T03:12:52.281Z,19.94
2023-06-11T03:14:55.197Z,19.91
2023-06-11T03:16:57.976Z,20.51
2023-06-11T03:19:00.837Z,21.29
2023-06-11T03:21:04.464Z,20.78
2023-06-11T03:23:09.079Z,20.76
2023-06-11T03:25:12.132Z,19.42
2023-06-11T03:27:15.124Z,20.40
2023-06-11T03:29:17.992Z,20.16
2023-06-11T03:31:26.435Z,20.98
2023-06-11T03:33:29.387Z,20.63
2023-06-11T03:35:32.422Z,20.68
2023-06-11T03:37:44.750Z,21.06
2023-06-11T03:39:53.877Z,20.25
2023-06-11T03:41:56.655Z,19.39
2023-06-11T03:44:01.404Z,19.10
2023-06-11T03:46:04.579Z,19.69
2023-06-11T03:48:09.367Z,19.71
2023-06-11T03:50:13.539Z,20.07
2023-06-11T03:52:17.470Z,19.67
2023-06-11T03:54:20.346Z,20.72
2023-06-11T03:56:25.940Z,21.00
2023-06-11T03:58:28.827Z,21.09
2023-06-11T04:00:33.276Z,19.79
2023-06-11T04:02:37.301Z,19.72
2023-06-11T04:04:40.637Z,18.98
2023-06-11T04:06:44.275Z,19.78
2023-06-11T04:08:47.899Z,20.01
2023-06-11T04:10:50.840Z,20.12
2023-06-11T04:12:55.643Z,19.65
2023-06-11T04:14:58.438Z,20.38
2023-06-11T04:17:01.839Z,19.93
2023-06-11T04:19:05.147Z,19.82
2023-06-11T04:21:08.409Z,19.88
2023-06-11T04:23:11.199Z,20.08
2023-06-11T04:25:15.040Z,19.44
2023-06-11T04:27:19.180Z,20.32
2023-06-11T04:29:24.208Z,20.36
2023-06-11T04:31:28.616Z,20.85
2023-06-11T04:33:34.546Z,20.50
2023-06-11T04:35:39.659Z,20.69
2023-06-11T04:37:42.788Z,20.42
2023-06-11T04:39:51.015Z,20.09
2023-06-11T04:41:54.843Z,20.20
2023-06-11T04:44:01.946Z,20.73
2023-06-11T04:46:07.792Z,19.51
2023-06-11T04:48:12.164Z,19.47
2023-06-11T04:50:21.986Z,19.70
2023-06-11T04:52:27.685Z,20.23
2023-06-11T04:54:32.782Z,19.70
2023-06-11T04:56:39.032Z,19.57
2023-06-11T04:58:44.488Z,19.53
2023-06-11T05:00:48.424Z,18.92
2023-06-11T05:02:53.060Z,19.44
2023-06-11T05:04:58.801Z,19.93
2023-06-11T05:07:06.318Z,20.17
2023-06-11T05:09:13.031Z,19.02
2023-06-11T05:11:15.808Z,19.93
2023-06-11T05:13:23.351Z,20.49
2023-06-11T05:15:26.353Z,20.14
2023-06-11T05:17:29.816Z,20.07
2023-06-11T05:19:34.309Z,19.78
2023-06-11T05:21:37.945Z,18.93
2023-06-11T05:23:42.593Z,19.11
2023-06-11T05:25:48.632Z,19.36
2023-06-11T05:27:55.643Z,19.17
2023-06-11T05:29:58.864Z,19.23
2023-06-11T05:32:01.970Z,18.99
2023-06-11T05:34:05.993Z,19.33
2023-06-11T05:36:11.753Z,19.72
2023-06-11T05:38:14.874Z,19.88
2023-06-11T05:40:18.873Z,20.13
2023-06-11T05:42:22.016Z,20.40
2023-06-11T05:44:24.998Z,20.31
2023-06-11T05:46:30.033Z,20.16
2023-06-11T05:48:33.691Z,20.22
2023-06-11T05:50:37.296Z,20.29
2023-06-11T05:52:41.725Z,20.50
2023-06-11T05:54:44.804Z,20.58
2023-06-11T05:56:48.830Z,20.92
2023-06-11T05:58:56.070Z,20.54
2023-06-11T06:01:02.258Z,20.73
2023-06-11T06:03:07.298Z,20.54
2023-06-11T06:05:12.166Z,20.46
2023-06-11T06:07:15.304Z,20.73
2023-06-11T06:09:19.508Z,21.03
2023-06-11T06:11:22.704Z,21.13
2023-06-11T06:13:25.770Z,21.30
2023-06-11T06:15:30.209Z,21.34
2023-06-11T06:17:33.215Z,21.40
2023-06-11T06:19:36.157Z,21.21
2023-06-11T06:21:39.127Z,20.98
2023-06-11T06:23:41.987Z,21.00
2023-06-11T06:25:49.576Z,21.00
2023-06-11T06:27:52.584Z,21.40
2023-06-11T06:29:55.792Z,21.64
2023-06-11T06:31:58.691Z,21.51
2023-06-11T06:34:01.718Z,21.71
2023-06-11T06:36:07.655Z,21.91
2023-06-11T06:38:10.542Z,21.90
2023-06-11T06:40:14.316Z,22.03
2023-06-11T06:42:19.320Z,22.33
2023-06-11T06:44:24.969Z,22.00
2023-06-11T06:46:27.795Z,22.00
2023-06-11T06:48:30.838Z,22.06
2023-06-11T06:50:34.315Z,22.32
2023-06-11T06:52:37.378Z,22.39
2023-06-11T06:54:41.041Z,22.62
2023-06-11T06:56:44.390Z,22.38
2023-06-11T06:58:48.530Z,22.72
2023-06-11T07:00:51.421Z,22.83
2023-06-11T07:02:56.525Z,22.93
2023-06-11T07:04:59.927Z,22.72
2023-06-11T07:07:03.071Z,22.45
2023-06-11T07:09:06.525Z,22.56
2023-06-11T07:11:10.562Z,22.45
2023-06-11T07:13:17.737Z,22.16
2023-06-11T07:15:22.699Z,22.37
2023-06-11T07:17:27.116Z,22.43
2023-06-11T07:19:30.768Z,22.40
2023-06-11T07:21:37.048Z,22.85
2023-06-11T07:23:39.951Z,22.74
2023-06-11T07:25:44.381Z,22.77
2023-06-11T07:27:48.546Z,22.76
2023-06-11T07:29:51.635Z,22.33
2023-06-11T07:31:56.068Z,22.45
2023-06-11T07:33:59.031Z,22.97
2023-06-11T07:36:02.430Z,23.37
2023-06-11T07:38:06.865Z,23.15
2023-06-11T07:40:11.252Z,23.24
2023-06-11T07:42:14.273Z,23.53
2023-06-11T07:44:17.253Z,23.36
2023-06-11T07:46:20.251Z,23.17
2023-06-11T07:48:24.409Z,23.35
2023-06-11T07:50:27.699Z,23.94
2023-06-11T07:52:30.643Z,24.14
2023-06-11T07:54:40.288Z,23.73
2023-06-11T07:56:43.108Z,23.63
2023-06-11T07:58:45.864Z,23.71
2023-06-11T08:00:48.703Z,23.93
2023-06-11T08:02:53.658Z,24.19
2023-06-11T08:04:58.156Z,23.72
2023-06-11T08:07:01.397Z,23.77
2023-06-11T08:09:04.198Z,24.39
2023-06-11T08:11:07.258Z,24.40
2023-06-11T08:13:10.061Z,24.60
2023-06-11T08:15:12.946Z,24.74
2023-06-11T08:17:15.726Z,24.97
2023-06-11T08:19:18.523Z,25.37
2023-06-11T08:21:22.607Z,25.21
2023-06-11T08:23:25.478Z,25.13
2023-06-11T08:25:28.260Z,25.11
2023-06-11T08:27:31.088Z,25.01
2023-06-11T08:29:33.872Z,25.37
2023-06-11T08:31:36.642Z,25.42
2023-06-11T08:33:39.375Z,25.51
2023-06-11T08:35:42.211Z,25.47
2023-06-11T08:37:47.192Z,25.62
2023-06-11T08:39:50.038Z,25.85
2023-06-11T08:41:52.830Z,25.87
2023-06-11T08:43:55.704Z,25.86
2023-06-11T08:45:58.477Z,25.85
2023-06-11T08:48:04.483Z,26.11
2023-06-11T08:50:08.991Z,26.12
2023-06-11T08:52:14.496Z,26.21
2023-06-11T08:54:19.555Z,26.01
2023-06-11T08:56:22.464Z,26.06
2023-06-11T08:58:26.577Z,26.27
2023-06-11T09:00:29.365Z,26.55
2023-06-11T09:02:32.267Z,26.41
2023-06-11T09:04:35.089Z,26.35
2023-06-11T09:06:37.880Z,26.09
2023-06-11T09:08:40.646Z,25.94
2023-06-11T09:10:54.004Z,26.15
2023-06-11T09:12:57.949Z,25.63
2023-06-11T09:15:01.218Z,25.60
2023-06-11T09:17:04.014Z,25.56
2023-06-11T09:19:06.821Z,26.09
2023-06-11T09:21:10.839Z,26.13
2023-06-11T09:23:13.593Z,26.39
2023-06-11T09:25:18.079Z,26.26
2023-06-11T09:27:24.066Z,26.58
2023-06-11T09:29:27.993Z,26.68
2023-06-11T09:31:31.149Z,26.98
2023-06-11T09:33:34.373Z,26.85
2023-06-11T09:35:44.958Z,27.12
2023-06-11T09:37:51.093Z,27.15
2023-06-11T09:39:54.008Z,27.44
2023-06-11T09:41:56.986Z,27.41
2023-06-11T09:44:02.199Z,27.40
2023-06-11T09:46:05.236Z,27.54
2023-06-11T09:48:08.248Z,27.34
2023-06-11T09:50:13.229Z,27.65
2023-06-11T09:52:16.671Z,27.74
2023-06-11T09:54:22.250Z,27.53
2023-06-11T09:56:25.846Z,27.66
2023-06-11T09:58:30.475Z,27.82
2023-06-11T10:00:36.493Z,27.51
2023-06-11T10:02:40.369Z,27.17
2023-06-11T10:04:43.443Z,27.54
2023-06-11T10:06:50.580Z,28.14
2023-06-11T10:08:55.432Z,28.37
2023-06-11T10:11:00.369Z,28.23
2023-06-11T10:13:03.798Z,28.16
2023-06-11T10:15:12.752Z,28.54
2023-06-11T10:17:17.200Z,28.48
2023-06-11T10:19:20.465Z,28.68
2023-06-11T10:21:23.245Z,28.77
2023-06-11T10:23:36.522Z,28.75
2023-06-11T10:25:40.832Z,28.91
2023-06-11T10:27:44.776Z,28.78
2023-06-11T10:29:49.160Z,28.77
2023-06-11T10:31:58.376Z,29.12
2023-06-11T10:34:06.806Z,29.34
2023-06-11T10:36:09.740Z,29.54
2023-06-11T10:38:16.228Z,29.73
2023-06-11T10:40:20.842Z,29.52
2023-06-11T10:42:24.948Z,29.43
2023-06-11T10:44:27.929Z,29.35
2023-06-11T10:46:30.788Z,29.42
2023-06-11T10:48:33.784Z,29.99
2023-06-11T10:50:37.990Z,29.86
2023-06-11T10:52:51.110Z,29.08
2023-06-11T10:54:54.187Z,29.28
2023-06-11T10:56:57.017Z,29.58
2023-06-11T10:59:00.179Z,30.17
2023-06-11T11:01:05.421Z,29.65
2023-06-11T11:03:10.199Z,29.81
2023-06-11T11:05:13.580Z,30.01
2023-06-11T11:07:18.391Z,30.31
2023-06-11T11:09:23.034Z,30.39
2023-06-11T11:11:27.697Z,30.59
2023-06-11T11:13:31.165Z,30.78
2023-06-11T11:15:34.014Z,30.62
2023-06-11T11:17:36.988Z,30.77
2023-06-11T11:19:42.891Z,30.78
2023-06-11T11:21:52.698Z,30.77
2023-06-11T11:23:57.052Z,30.63
2023-06-11T11:26:00.222Z,31.00
2023-06-11T11:28:03.067Z,31.27
2023-06-11T11:30:07.244Z,31.39
2023-06-11T11:32:10.313Z,31.36
2023-06-11T11:34:13.780Z,31.54
2023-06-11T11:36:16.574Z,31.61
2023-06-11T11:38:19.713Z,31.70
2023-06-11T11:40:24.492Z,31.70
2023-06-11T11:42:27.462Z,31.71
2023-06-11T11:44:40.302Z,32.07
2023-06-11T11:46:43.263Z,32.40
2023-06-11T11:48:46.263Z,32.58
2023-06-11T11:50:50.509Z,32.63
2023-06-11T11:53:05.128Z,32.95
2023-06-11T11:55:08.890Z,32.65
2023-06-11T11:57:13.348Z,33.00
2023-06-11T11:59:20.086Z,33.08
2023-06-11T12:01:27.601Z,32.90
2023-06-11T12:03:31.092Z,32.51
2023-06-11T12:05:34.000Z,33.04
2023-06-11T12:07:36.735Z,33.44
2023-06-11T12:09:40.507Z,33.21
2023-06-11T12:11:52.180Z,33.30
2023-06-11T12:14:04.425Z,33.42
2023-06-11T12:16:07.317Z,33.72
2023-06-11T12:18:10.061Z,33.89
2023-06-11T12:20:13.861Z,33.83
2023-06-11T12:22:16.905Z,34.17
2023-06-11T12:24:19.755Z,33.85
2023-06-11T12:26:22.658Z,33.91
2023-06-11T12:28:25.398Z,33.94
2023-06-11T12:30:32.110Z,34.26
2023-06-11T12:32:35.292Z,34.15
2023-06-11T12:34:38.022Z,34.03
2023-06-11T12:36:40.872Z,34.26
2023-06-11T12:38:43.551Z,34.16
2023-06-11T12:40:46.282Z,33.76
2023-06-11T12:42:49.643Z,33.79
2023-06-11T12:44:52.373Z,33.71
2023-06-11T12:46:56.384Z,33.53
2023-06-11T12:48:59.175Z,33.37
2023-06-11T12:51:01.867Z,33.03
2023-06-11T12:53:05.537Z,32.76
2023-06-11T12:55:09.137Z,32.55
2023-06-11T12:57:12.663Z,33.50
2023-06-11T12:59:16.362Z,33.40
2023-06-11T13:01:19.354Z,33.86
2023-06-11T13:03:23.435Z,34.53
2023-06-11T13:05:26.191Z,34.95
2023-06-11T13:07:28.950Z,35.02
2023-06-11T13:09:31.802Z,35.20
2023-06-11T13:11:34.517Z,35.45
2023-06-11T13:13:37.251Z,34.93
2023-06-11T13:15:41.273Z,35.07
2023-06-11T13:17:44.020Z,34.50
2023-06-11T13:19:48.179Z,34.99
2023-06-11T13:21:50.962Z,34.65
2023-06-11T13:23:53.712Z,34.68
2023-06-11T13:25:56.418Z,34.92
2023-06-11T13:27:59.275Z,34.75
2023-06-11T13:30:02.574Z,34.59
2023-06-11T13:32:05.947Z,34.26
2023-06-11T13:34:09.288Z,34.55
2023-06-11T13:36:13.493Z,35.39
2023-06-11T13:38:16.195Z,35.27
2023-06-11T13:40:19.982Z,35.67
2023-06-11T13:42:22.793Z,35.66
2023-06-11T13:44:25.653Z,36.11
2023-06-11T13:46:28.576Z,35.95
2023-06-11T13:48:31.291Z,36.13
2023-06-11T13:50:34.645Z,35.84
2023-06-11T13:52:38.683Z,36.34
2023-06-11T13:54:43.542Z,36.01
2023-06-11T13:56:46.720Z,35.38
2023-06-11T13:58:49.926Z,35.52
2023-06-11T14:00:54.704Z,35.41
2023-06-11T14:02:58.476Z,35.16
2023-06-11T14:05:01.257Z,35.94
2023-06-11T14:07:04.986Z,36.11
2023-06-11T14:09:09.460Z,36.31
2023-06-11T14:11:14.454Z,36.35
2023-06-11T14:13:17.305Z,35.97
2023-06-11T14:15:20.227Z,35.70
2023-06-11T14:17:23.012Z,36.18
2023-06-11T14:19:25.777Z,36.45
2023-06-11T14:21:28.611Z,36.27
2023-06-11T14:23:31.326Z,35.42
2023-06-11T14:25:35.410Z,36.00
2023-06-11T14:27:38.522Z,35.77
2023-06-11T14:29:41.263Z,35.94
2023-06-11T14:31:44.881Z,36.21
2023-06-11T14:33:48.308Z,36.12
2023-06-11T14:35:51.677Z,36.07
2023-06-11T14:37:58.147Z,35.30
2023-06-11T14:40:02.186Z,35.71
2023-06-11T14:42:08.128Z,35.72
2023-06-11T14:44:10.916Z,36.90
2023-06-11T14:46:13.744Z,37.14
2023-06-11T14:48:16.596Z,37.41
2023-06-11T14:50:19.407Z,37.19
2023-06-11T14:52:23.211Z,36.94
2023-06-11T14:54:26.115Z,36.23
2023-06-11T14:56:28.857Z,36.21
2023-06-11T14:58:32.923Z,36.54
2023-06-11T15:00:35.746Z,36.31
2023-06-11T15:02:38.500Z,36.75
2023-06-11T15:04:41.306Z,36.74
2023-06-11T15:06:44.064Z,36.60
2023-06-11T15:08:46.837Z,36.02
2023-06-11T15:10:49.611Z,36.71
2023-06-11T15:12:53.454Z,36.52
2023-06-11T15:14:57.654Z,37.28
2023-06-11T15:17:00.467Z,37.39
2023-06-11T15:19:03.229Z,36.63
2023-06-11T15:21:06.062Z,35.52
2023-06-11T15:23:11.172Z,36.70
2023-06-11T15:25:14.347Z,36.74
2023-06-11T15:27:18.357Z,37.24
2023-06-11T15:29:21.268Z,37.31
2023-06-11T15:31:25.385Z,37.40
2023-06-11T15:33:28.201Z,36.96
2023-06-11T15:35:30.960Z,36.81
2023-06-11T15:37:34.019Z,36.62
2023-06-11T15:39:36.849Z,36.78
2023-06-11T15:41:40.096Z,37.50
2023-06-11T15:43:43.030Z,37.52
2023-06-11T15:45:50.412Z,38.15
2023-06-11T15:47:54.694Z,37.94
2023-06-11T15:49:57.562Z,38.08
2023-06-11T15:52:00.676Z,38.35
2023-06-11T15:54:04.174Z,38.75
2023-06-11T15:56:07.069Z,38.74
2023-06-11T15:58:11.905Z,37.68
2023-06-11T16:00:15.901Z,36.97
2023-06-11T16:02:18.699Z,38.01
2023-06-11T16:04:24.088Z,38.60
2023-06-11T16:06:27.105Z,39.02
2023-06-11T16:08:29.855Z,39.35
2023-06-11T16:10:32.667Z,39.34
2023-06-11T16:12:35.478Z,39.18
2023-06-11T16:14:38.261Z,39.47
2023-06-11T16:16:41.064Z,39.34
2023-06-11T16:18:44.001Z,38.99
2023-06-11T16:20:48.113Z,38.98
2023-06-11T16:22:51.124Z,38.66
2023-06-11T16:24:53.858Z,39.28
2023-06-11T16:26:56.646Z,38.99
2023-06-11T16:28:59.562Z,39.18
2023-06-11T16:31:02.638Z,38.93
2023-06-11T16:33:05.491Z,39.03
2023-06-11T16:35:08.993Z,39.33
2023-06-11T16:37:13.402Z,39.52
2023-06-11T16:39:25.550Z,38.97
2023-06-11T16:41:30.242Z,39.20
2023-06-11T16:43:33.066Z,39.58
2023-06-11T16:45:35.968Z,39.04
2023-06-11T16:47:38.751Z,38.85
2023-06-11T16:49:41.528Z,38.99
2023-06-11T16:51:44.385Z,39.20
2023-06-11T16:53:50.745Z,39.38
2023-06-11T16:55:53.475Z,38.76
2023-06-11T16:57:58.137Z,38.36
2023-06-11T17:00:02.222Z,37.83
2023-06-11T17:02:05.500Z,38.42
2023-06-11T17:04:08.449Z,38.83
2023-06-11T17:06:11.332Z,38.33
2023-06-11T17:08:14.376Z,38.36
2023-06-11T17:10:19.135Z,38.67
2023-06-11T17:12:22.036Z,38.64
2023-06-11T17:14:24.884Z,37.67
2023-06-11T17:16:27.859Z,37.86
2023-06-11T17:18:30.654Z,38.20
2023-06-11T17:20:35.039Z,38.11
2023-06-11T17:22:39.024Z,38.66
2023-06-11T17:24:41.926Z,38.57
2023-06-11T17:26:46.009Z,38.36
2023-06-11T17:28:49.118Z,38.24
2023-06-11T17:30:52.216Z,37.98
2023-06-11T17:32:55.048Z,37.96
2023-06-11T17:34:58.102Z,38.08
2023-06-11T17:37:00.893Z,38.53
2023-06-11T17:39:03.726Z,38.45
2023-06-11T17:41:06.529Z,38.54
2023-06-11T17:43:10.738Z,37.38
2023-06-11T17:45:13.738Z,37.38
2023-06-11T17:47:16.641Z,37.17
2023-06-11T17:49:19.449Z,36.23
2023-06-11T17:51:22.196Z,36.90
2023-06-11T17:53:24.926Z,36.99
2023-06-11T17:55:27.792Z,36.74
2023-06-11T17:57:30.581Z,36.15
2023-06-11T17:59:34.729Z,35.53
2023-06-11T18:01:38.378Z,35.22
2023-06-11T18:03:41.193Z,34.88
2023-06-11T18:05:44.057Z,34.99
2023-06-11T18:07:47.403Z,34.84
2023-06-11T18:09:50.536Z,35.11
2023-06-11T18:11:53.471Z,35.12
2023-06-11T18:13:56.256Z,34.33
2023-06-11T18:16:00.665Z,34.10
2023-06-11T18:18:04.342Z,34.26
2023-06-11T18:20:09.839Z,33.63
2023-06-11T18:22:12.638Z,32.15
2023-06-11T18:24:15.528Z,32.04
2023-06-11T18:26:18.522Z,32.29
2023-06-11T18:28:21.372Z,32.21
2023-06-11T18:30:24.499Z,32.38
2023-06-11T18:32:28.718Z,32.08
2023-06-11T18:34:31.505Z,31.45
2023-06-11T18:36:34.705Z,30.58
2023-06-11T18:38:37.667Z,29.36
2023-06-11T18:40:40.538Z,29.11
2023-06-11T18:42:43.451Z,28.76
2023-06-11T18:44:46.668Z,28.76
2023-06-11T18:46:49.514Z,28.35
2023-06-11T18:48:53.625Z,28.25
2023-06-11T18:50:56.407Z,28.24
2023-06-11T18:52:59.224Z,27.79
2023-06-11T18:55:02.054Z,27.57
2023-06-11T18:57:09.223Z,27.50
2023-06-11T18:59:12.045Z,27.32
2023-06-11T19:01:14.885Z,27.12
2023-06-11T19:03:17.919Z,27.09
2023-06-11T19:05:22.327Z,26.99
2023-06-11T19:07:25.285Z,26.73
2023-06-11T19:09:28.080Z,26.37
2023-06-11T19:11:30.955Z,26.48
2023-06-11T19:13:33.956Z,26.20
2023-06-11T19:15:36.761Z,26.34
2023-06-11T19:17:39.688Z,26.21
2023-06-11T19:19:42.513Z,25.82
2023-06-11T19:21:47.773Z,25.66
2023-06-11T19:23:50.714Z,25.45
2023-06-11T19:25:55.539Z,25.09
2023-06-11T19:27:58.349Z,24.94
2023-06-11T19:30:01.170Z,24.60
2023-06-11T19:32:04.663Z,24.64
2023-06-11T19:34:07.911Z,24.78
2023-06-11T19:36:10.844Z,24.74
2023-06-11T19:38:15.076Z,24.58
2023-06-11T19:40:17.946Z,24.05
2023-06-11T19:42:20.725Z,24.26
2023-06-11T19:44:23.545Z,24.26
2023-06-11T19:46:30.025Z,23.94
2023-06-11T19:48:34.541Z,24.14
2023-06-11T19:50:37.390Z,23.87
2023-06-11T19:52:40.336Z,23.98
2023-06-11T19:54:51.369Z,24.24
2023-06-11T19:56:54.807Z,24.18
2023-06-11T19:58:57.755Z,24.00
2023-06-11T20:01:00.775Z,23.88
2023-06-11T20:03:03.587Z,23.88
2023-06-11T20:05:07.614Z,23.92
2023-06-11T20:07:10.658Z,23.77
2023-06-11T20:09:13.757Z,23.52
2023-06-11T20:11:19.167Z,23.38
2023-06-11T20:13:21.947Z,23.58
2023-06-11T20:15:24.745Z,23.63
2023-06-11T20:17:27.576Z,23.71
2023-06-11T20:19:30.853Z,23.49
2023-06-11T20:21:33.649Z,23.85
2023-06-11T20:23:36.960Z,24.21
2023-06-11T20:25:39.711Z,24.38
2023-06-11T20:27:43.989Z,24.47
2023-06-11T20:29:46.902Z,24.60
2023-06-11T20:31:49.762Z,24.60
2023-06-11T20:33:53.008Z,24.68
2023-06-11T20:35:55.771Z,24.83
2023-06-11T20:37:58.556Z,24.83
2023-06-11T20:40:01.345Z,24.23
2023-06-11T20:42:04.630Z,24.16
2023-06-11T20:44:08.834Z,24.48
2023-06-11T20:46:27.444Z,24.33
2023-06-11T20:48:31.276Z,24.49
2023-06-11T20:50:34.248Z,24.34
2023-06-11T20:52:37.091Z,24.53
2023-06-11T20:54:39.890Z,24.47
2023-06-11T20:56:42.758Z,24.50
2023-06-11T20:58:45.558Z,24.09
2023-06-11T21:00:49.783Z,24.05
2023-06-11T21:02:52.689Z,24.22
2023-06-11T21:04:55.595Z,23.66
2023-06-11T21:06:58.413Z,23.51
2023-06-11T21:09:01.388Z,23.73
2023-06-11T21:11:04.241Z,23.52
2023-06-11T21:13:07.040Z,23.12
2023-06-11T21:15:10.449Z,21.92
2023-06-11T21:17:14.677Z,22.04
2023-06-11T21:19:17.606Z,22.30
2023-06-11T21:21:20.514Z,21.96
2023-06-11T21:23:23.336Z,22.11
2023-06-11T21:25:26.115Z,21.96
2023-06-11T21:27:28.942Z,21.66
2023-06-11T21:29:31.796Z,22.37
2023-06-11T21:31:34.683Z,22.60
2023-06-11T21:33:38.820Z,22.88
2023-06-11T21:35:41.710Z,22.58
2023-06-11T21:37:44.544Z,23.09
2023-06-11T21:39:47.380Z,23.17
2023-06-11T21:41:51.703Z,23.39
2023-06-11T21:43:56.214Z,23.30
2023-06-11T21:45:59.744Z,23.52
2023-06-11T21:48:02.620Z,23.60
2023-06-11T21:50:07.807Z,23.74
2023-06-11T21:52:17.891Z,23.68
2023-06-11T21:54:20.843Z,23.76
2023-06-11T21:56:23.682Z,23.73
2023-06-11T21:58:26.497Z,23.72
2023-06-11T22:00:29.353Z,23.77
2023-06-11T22:02:32.328Z,23.77
2023-06-11T22:04:35.164Z,23.81
2023-06-11T22:06:42.911Z,23.74
2023-06-11T22:08:45.808Z,23.62
2023-06-11T22:10:48.625Z,23.67
2023-06-11T22:12:51.375Z,23.65
2023-06-11T22:14:54.625Z,23.70
2023-06-11T22:16:58.908Z,23.61
2023-06-11T22:19:04.108Z,23.62
2023-06-11T22:21:07.674Z,23.60
2023-06-11T22:23:12.018Z,23.58
2023-06-11T22:25:15.050Z,23.62
2023-06-11T22:27:17.936Z,23.50
2023-06-11T22:29:20.896Z,23.52
2023-06-11T22:31:24.339Z,23.29
2023-06-11T22:33:27.200Z,23.23
2023-06-11T22:35:30.057Z,23.15
2023-06-11T22:37:33.870Z,23.38
2023-06-11T22:39:38.007Z,23.39
2023-06-11T22:41:40.823Z,23.29
2023-06-11T22:43:43.676Z,23.40
2023-06-11T22:45:46.518Z,23.40
2023-06-11T22:47:54.632Z,22.93
2023-06-11T22:49:57.817Z,22.17
2023-06-11T22:52:01.230Z,22.74
2023-06-11T22:54:04.958Z,22.91
2023-06-11T22:56:09.205Z,23.00
2023-06-11T22:58:12.042Z,22.70
2023-06-11T23:00:16.973Z,22.89
2023-06-11T23:02:20.386Z,22.66
2023-06-11T23:04:23.505Z,22.33
2023-06-11T23:06:27.957Z,22.21
2023-06-11T23:08:30.942Z,22.24
2023-06-11T23:10:33.818Z,22.23
2023-06-11T23:12:37.992Z,22.40
2023-06-11T23:14:41.136Z,22.52
2023-06-11T23:16:49.161Z,22.53
2023-06-11T23:18:54.550Z,22.68
2023-06-11T23:20:57.711Z,22.74
2023-06-11T23:23:03.414Z,22.69
2023-06-11T23:25:07.981Z,22.70
2023-06-11T23:27:13.297Z,22.71
2023-06-11T23:29:19.653Z,22.61
2023-06-11T23:31:22.816Z,22.14
2023-06-11T23:33:25.805Z,21.58
2023-06-11T23:35:28.608Z,21.90
2023-06-11T23:37:31.617Z,21.89
2023-06-11T23:39:34.494Z,21.93
2023-06-11T23:41:37.479Z,21.34
2023-06-11T23:43:40.609Z,21.27
2023-06-11T23:45:44.994Z,21.18
2023-06-11T23:47:47.944Z,21.05
2023-06-11T23:49:50.747Z,21.65
2023-06-11T23:51:53.833Z,21.95
2023-06-11T23:53:56.724Z,22.20
2023-06-11T23:56:01.391Z,21.14
2023-06-11T23:58:18.169Z,21.77
